createdAt,value
2022-08-21T00:00:34.283Z,54.79
2022-08-21T00:05:56.185Z,56.13
2022-08-21T00:11:18.607Z,55.99
2022-08-21T00:16:40.578Z,56.86
2022-08-21T00:22:02.383Z,57.86
2022-08-21T00:27:24.122Z,58.15
2022-08-21T00:32:46.325Z,57.64
2022-08-21T00:38:09.272Z,58.67
2022-08-21T00:43:35.751Z,59.64
2022-08-21T00:48:59.040Z,59.22
2022-08-21T00:54:25.510Z,58.50
2022-08-21T00:59:51.906Z,59.34
2022-08-21T01:05:14.587Z,60.02
2022-08-21T01:10:37.993Z,59.83
2022-08-21T01:16:03.756Z,60.29
2022-08-21T01:21:27.986Z,60.59
2022-08-21T01:26:51.955Z,60.47
2022-08-21T01:32:17.487Z,60.53
2022-08-21T01:37:39.394Z,60.15
2022-08-21T01:43:01.406Z,60.84
2022-08-21T01:48:23.130Z,61.05
2022-08-21T01:53:45.044Z,60.90
2022-08-21T01:59:07.824Z,61.41
2022-08-21T02:04:29.732Z,61.20
2022-08-21T02:09:51.459Z,61.06
2022-08-21T02:15:15.524Z,61.26
2022-08-21T02:20:40.970Z,61.42
2022-08-21T02:26:05.969Z,61.94
2022-08-21T02:31:27.762Z,61.24
2022-08-21T02:36:59.405Z,61.34
2022-08-21T02:42:21.625Z,60.90
2022-08-21T02:47:55.975Z,61.67
2022-08-21T02:53:17.797Z,62.09
2022-08-21T02:58:48.818Z,62.70
2022-08-21T03:04:11.349Z,64.93
2022-08-21T03:09:33.058Z,64.97
2022-08-21T03:14:54.780Z,65.73
2022-08-21T03:20:19.086Z,64.84
2022-08-21T03:25:41.526Z,64.38
2022-08-21T03:31:03.253Z,65.39
2022-08-21T03:36:25.392Z,65.39
2022-08-21T03:41:48.138Z,65.84
2022-08-21T03:47:10.565Z,66.18
2022-08-21T03:52:32.380Z,67.30
2022-08-21T03:57:54.492Z,68.03
2022-08-21T04:03:17.132Z,67.59
2022-08-21T04:08:39.020Z,67.58
2022-08-21T04:14:00.721Z,68.14
2022-08-21T04:19:22.478Z,66.60
2022-08-21T04:24:44.222Z,67.00
2022-08-21T04:30:06.441Z,66.44
2022-08-21T04:35:29.063Z,67.13
2022-08-21T04:40:52.075Z,66.85
2022-08-21T04:46:13.890Z,67.30
2022-08-21T04:51:38.909Z,68.41
2022-08-21T04:57:06.249Z,68.96
2022-08-21T05:02:28.085Z,68.65
2022-08-21T05:07:50.483Z,67.00
2022-08-21T05:13:13.848Z,67.17
2022-08-21T05:18:35.762Z,67.74
2022-08-21T05:23:57.553Z,67.79
2022-08-21T05:29:20.008Z,68.37
2022-08-21T05:34:42.317Z,68.11
2022-08-21T05:40:22.476Z,67.59
2022-08-21T05:45:44.899Z,66.70
2022-08-21T05:51:12.901Z,65.77
2022-08-21T05:56:34.828Z,66.27
2022-08-21T06:01:56.639Z,66.51
2022-08-21T06:07:18.450Z,65.88
2022-08-21T06:12:40.364Z,65.51
2022-08-21T06:18:04.301Z,64.91
2022-08-21T06:23:30.776Z,64.61
2022-08-21T06:28:55.219Z,64.13
2022-08-21T06:34:16.993Z,63.94
2022-08-21T06:39:43.266Z,64.59
2022-08-21T06:45:07.109Z,64.05
2022-08-21T06:50:29.725Z,63.54
2022-08-21T06:55:53.696Z,65.28
2022-08-21T07:01:15.458Z,66.83
2022-08-21T07:06:37.298Z,66.63
2022-08-21T07:12:00.054Z,66.93
2022-08-21T07:17:21.875Z,66.44
2022-08-21T07:22:43.600Z,65.88
2022-08-21T07:28:05.495Z,64.10
2022-08-21T07:33:29.731Z,61.94
2022-08-21T07:38:52.726Z,59.93
2022-08-21T07:44:14.666Z,59.48
2022-08-21T07:49:36.619Z,58.47
2022-08-21T07:55:00.749Z,58.50
2022-08-21T08:00:26.887Z,59.30
2022-08-21T08:05:48.960Z,58.04
2022-08-21T08:11:12.131Z,58.30
2022-08-21T08:16:33.859Z,58.06
2022-08-21T08:21:55.739Z,58.27
2022-08-21T08:27:18.058Z,57.58
2022-08-21T08:32:40.921Z,56.27
2022-08-21T08:38:03.035Z,56.21
2022-08-21T08:43:24.769Z,55.67
2022-08-21T08:49:03.429Z,55.91
2022-08-21T08:54:34.222Z,53.88
2022-08-21T08:59:58.883Z,53.00
2022-08-21T09:05:28.175Z,53.40
2022-08-21T09:11:02.102Z,52.87
2022-08-21T09:16:34.702Z,49.34
2022-08-21T09:22:18.109Z,49.53
2022-08-21T09:27:40.648Z,49.70
2022-08-21T09:33:02.395Z,48.10
2022-08-21T09:38:28.986Z,47.60
2022-08-21T09:43:54.881Z,46.31
2022-08-21T09:49:28.690Z,47.94
2022-08-21T09:54:54.155Z,47.28
2022-08-21T10:00:34.256Z,47.58
2022-08-21T10:06:09.571Z,46.26
2022-08-21T10:11:32.336Z,46.50
2022-08-21T10:17:16.904Z,45.95
2022-08-21T10:22:57.053Z,44.71
2022-08-21T10:28:54.276Z,45.01
2022-08-21T10:34:30.245Z,44.25
2022-08-21T10:40:08.213Z,44.69
2022-08-21T10:46:11.331Z,44.20
2022-08-21T10:52:04.575Z,45.10
2022-08-21T10:57:35.173Z,44.37
2022-08-21T11:03:09.467Z,43.80
2022-08-21T11:08:38.778Z,43.81
2022-08-21T11:14:13.977Z,43.14
2022-08-21T11:20:06.851Z,42.70
2022-08-21T11:25:36.555Z,42.67
2022-08-21T11:31:14.038Z,41.13
2022-08-21T11:36:47.432Z,41.23
2022-08-21T11:42:27.163Z,40.91
2022-08-21T11:48:16.854Z,40.32
2022-08-21T11:53:54.021Z,40.64
2022-08-21T11:59:24.105Z,40.26
2022-08-21T12:04:56.391Z,39.24
2022-08-21T12:10:23.249Z,39.01
2022-08-21T12:15:44.950Z,38.86
2022-08-21T12:21:19.800Z,38.29
2022-08-21T12:26:59.998Z,38.09
2022-08-21T12:32:29.146Z,38.44
2022-08-21T12:38:29.102Z,38.09
2022-08-21T12:44:00.217Z,37.71
2022-08-21T12:49:36.385Z,37.48
2022-08-21T12:54:58.131Z,38.23
2022-08-21T13:00:24.246Z,37.44
2022-08-21T13:05:46.374Z,37.41
2022-08-21T13:11:13.338Z,37.17
2022-08-21T13:16:37.133Z,37.59
2022-08-21T13:21:59.055Z,37.12
2022-08-21T13:27:29.470Z,37.59
2022-08-21T13:32:56.467Z,36.63
2022-08-21T13:38:26.611Z,36.71
2022-08-21T13:44:01.111Z,36.58
2022-08-21T13:49:30.085Z,36.68
2022-08-21T13:55:00.685Z,35.88
2022-08-21T14:00:31.232Z,34.85
2022-08-21T14:05:52.951Z,35.29
2022-08-21T14:11:14.899Z,35.16
2022-08-21T14:16:53.977Z,35.29
2022-08-21T14:22:40.281Z,36.01
2022-08-21T14:28:13.844Z,35.50
2022-08-21T14:33:38.376Z,35.82
2022-08-21T14:39:00.608Z,35.86
2022-08-21T14:44:24.304Z,35.65
2022-08-21T14:49:46.043Z,35.38
2022-08-21T14:55:11.597Z,35.03
2022-08-21T15:00:36.021Z,34.77
2022-08-21T15:05:58.972Z,34.58
2022-08-21T15:11:42.288Z,35.09
2022-08-21T15:17:06.386Z,34.35
2022-08-21T15:22:28.551Z,34.21
2022-08-21T15:27:50.743Z,34.16
2022-08-21T15:33:12.519Z,34.37
2022-08-21T15:38:34.350Z,34.53
2022-08-21T15:43:56.114Z,34.40
2022-08-21T15:49:17.844Z,34.55
2022-08-21T15:54:39.612Z,33.74
2022-08-21T16:00:12.948Z,34.50
2022-08-21T16:05:34.684Z,34.71
2022-08-21T16:10:56.481Z,34.68
2022-08-21T16:16:24.957Z,34.00
2022-08-21T16:21:46.669Z,34.25
2022-08-21T16:27:09.173Z,34.01
2022-08-21T16:32:31.451Z,33.61
2022-08-21T16:37:53.628Z,33.58
2022-08-21T16:43:16.287Z,33.28
2022-08-21T16:48:39.047Z,32.93
2022-08-21T16:54:01.282Z,32.92
2022-08-21T16:59:23.131Z,33.12
2022-08-21T17:04:45.110Z,32.83
2022-08-21T17:10:09.001Z,33.04
2022-08-21T17:15:36.210Z,32.74
2022-08-21T17:20:57.978Z,33.24
2022-08-21T17:26:19.923Z,33.04
2022-08-21T17:31:42.833Z,32.96
2022-08-21T17:37:05.614Z,32.79
2022-08-21T17:42:27.514Z,33.42
2022-08-21T17:47:49.512Z,33.78
2022-08-21T17:53:11.318Z,34.48
2022-08-21T17:58:34.341Z,35.29
2022-08-21T18:03:56.797Z,35.61
2022-08-21T18:09:18.533Z,35.83
2022-08-21T18:14:41.211Z,36.44
2022-08-21T18:20:06.726Z,36.75
2022-08-21T18:25:28.879Z,37.22
2022-08-21T18:30:54.163Z,37.64
2022-08-21T18:36:15.926Z,37.82
2022-08-21T18:41:38.060Z,38.35
2022-08-21T18:47:14.350Z,38.54
2022-08-21T18:52:36.315Z,38.89
2022-08-21T18:57:58.786Z,38.93
2022-08-21T19:09:07.318Z,39.38
2022-08-21T19:14:29.248Z,39.80
2022-08-21T19:19:51.994Z,40.26
2022-08-21T19:25:13.795Z,40.00
2022-08-21T19:30:41.310Z,39.97
2022-08-21T19:36:05.229Z,40.64
2022-08-21T19:41:30.747Z,40.68
2022-08-21T19:46:54.740Z,40.82
2022-08-21T19:52:18.768Z,40.67
2022-08-21T19:57:41.443Z,40.60
2022-08-21T20:03:04.438Z,41.14
2022-08-21T20:08:28.848Z,41.74
2022-08-21T20:13:53.076Z,42.05
2022-08-21T20:19:15.753Z,41.86
2022-08-21T20:24:42.063Z,42.03
2022-08-21T20:30:06.954Z,42.14
2022-08-21T20:35:28.962Z,42.01
2022-08-21T20:40:52.674Z,43.09
2022-08-21T20:46:19.055Z,43.39
2022-08-21T20:51:45.896Z,44.09
2022-08-21T20:57:21.897Z,44.35
2022-08-21T21:03:13.043Z,44.52
2022-08-21T21:08:46.740Z,43.88
2022-08-21T21:14:16.867Z,43.79
2022-08-21T21:19:48.412Z,42.42
2022-08-21T21:25:39.868Z,42.99
2022-08-21T21:31:03.884Z,43.26
2022-08-21T21:36:43.827Z,44.28
2022-08-21T21:42:16.915Z,45.26
2022-08-21T21:47:45.416Z,46.07
2022-08-21T21:53:36.486Z,46.56
2022-08-21T21:59:30.706Z,47.18
2022-08-21T22:04:56.298Z,47.22
2022-08-21T22:10:33.278Z,46.98
2022-08-21T22:16:06.397Z,47.43
2022-08-21T22:21:34.423Z,46.87
2022-08-21T22:27:01.932Z,46.96
2022-08-21T22:32:27.682Z,46.89
2022-08-21T22:37:54.911Z,46.65
2022-08-21T22:43:22.890Z,45.85
2022-08-21T22:48:54.249Z,46.17
2022-08-21T22:54:29.775Z,46.39
2022-08-21T23:00:03.675Z,46.76
2022-08-21T23:05:28.342Z,47.89
2022-08-21T23:11:20.975Z,48.29
2022-08-21T23:17:15.962Z,48.14
2022-08-21T23:23:04.100Z,47.71
2022-08-21T23:28:28.531Z,48.05
2022-08-21T23:34:05.865Z,48.97
2022-08-21T23:39:51.798Z,50.24
2022-08-21T23:45:36.758Z,51.14
2022-08-21T23:51:05.999Z,51.44
2022-08-21T23:56:54.952Z,51.21
